Time;durP1;ratioP1;P1;durP2;ratioP2;P2;SDS_P1;SDS_P2;PMS_P1;PMS_P2;Temp;Humidity;BMP_temperature;BMP_pressure;BME280_temperature;BME280_humidity;BME280_pressure;Samples;Min_cycle;Max_cycle;Signal;HPM_P1;HPM_P2
2021/08/02 00:00:55;;;;;;;2.50;1.10;;;;;;;18.94;80.76;100269.44;5088456;28;20051;-69
2021/08/02 00:03:51;;;;;;;1.52;0.80;;;;;;;18.97;80.94;100270.72;5086863;28;20044;-69
2021/08/02 00:06:23;;;;;;;1.77;1.15;;;;;;;19.03;80.85;100273.00;5081498;28;20131;-68
2021/08/02 00:09:04;;;;;;;2.53;1.40;;;;;;;19.00;80.69;100262.38;5089173;28;20093;-68
2021/08/02 00:11:39;;;;;;;11.13;1.48;;;;;;;18.90;80.71;100251.44;5092075;28;20469;-69
2021/08/02 00:14:08;;;;;;;2.38;1.20;;;;;;;19.08;80.67;100277.66;5092068;28;20040;-69
2021/08/02 00:16:37;;;;;;;2.78;1.10;;;;;;;19.08;80.40;100269.97;5088761;28;20046;-67
2021/08/02 00:19:06;;;;;;;2.38;1.30;;;;;;;19.11;80.34;100257.97;5090152;28;20466;-69
2021/08/02 00:21:34;;;;;;;2.20;1.33;;;;;;;19.21;80.22;100278.53;5084868;28;20163;-70
2021/08/02 00:24:01;;;;;;;2.60;1.30;;;;;;;19.02;79.92;100254.38;5079518;28;20135;-70
2021/08/02 00:26:29;;;;;;;2.08;1.10;;;;;;;19.23;80.02;100270.53;5084036;28;20154;-69
2021/08/02 00:28:58;;;;;;;2.22;1.00;;;;;;;19.22;80.12;100266.03;5083394;28;20087;-67
2021/08/02 00:31:25;;;;;;;1.65;0.98;;;;;;;19.28;79.94;100278.78;5086500;28;20765;-65
2021/08/02 00:33:52;;;;;;;3.38;1.38;;;;;;;19.36;80.07;100286.41;5104049;28;20048;-66
2021/08/02 00:36:44;;;;;;;4.00;2.20;;;;;;;19.34;80.16;100280.25;5099918;28;20549;-67
2021/08/02 00:39:17;;;;;;;4.57;2.10;;;;;;;19.33;79.93;100284.25;5089034;28;20505;-64
2021/08/02 00:42:25;;;;;;;7.32;1.88;;;;;;;19.35;80.04;100279.06;5085988;28;20044;-63
2021/08/02 00:45:02;;;;;;;5.47;2.53;;;;;;;19.33;79.89;100281.44;5081613;28;20132;-64
2021/08/02 00:47:38;;;;;;;7.55;3.38;;;;;;;19.34;79.85;100277.41;5082676;28;20080;-67
2021/08/02 00:50:15;;;;;;;7.35;3.58;;;;;;;19.31;79.73;100270.44;5091202;28;20087;-68
2021/08/02 00:52:48;;;;;;;7.40;3.25;;;;;;;19.34;79.86;100274.59;5087412;28;20044;-68
2021/08/02 00:55:16;;;;;;;7.72;3.78;;;;;;;19.33;79.52;100270.09;5090897;28;20087;-68
2021/08/02 00:57:47;;;;;;;7.53;3.08;;;;;;;18.95;79.91;100220.13;5088049;28;20086;-65
2021/08/02 01:00:17;;;;;;;11.05;4.10;;;;;;;19.25;79.66;100256.81;5082410;28;20043;-65
2021/08/02 01:02:51;;;;;;;8.77;3.55;;;;;;;19.30;79.61;100256.63;5087218;28;20098;-65
2021/08/02 01:05:19;;;;;;;13.60;3.88;;;;;;;19.32;79.81;100254.28;5076263;28;20052;-65
2021/08/02 01:07:57;;;;;;;7.88;3.20;;;;;;;19.37;79.77;100254.06;5077719;28;20580;-65
2021/08/02 01:10:24;;;;;;;10.13;3.67;;;;;;;19.41;79.78;100266.34;5089584;28;20040;-65
2021/08/02 01:12:55;;;;;;;6.85;3.15;;;;;;;19.44;79.90;100262.81;5093468;28;20079;-65
2021/08/02 01:15:22;;;;;;;10.32;3.92;;;;;;;19.46;79.69;100263.31;5086023;28;20132;-65
2021/08/02 01:17:49;;;;;;;10.38;4.78;;;;;;;19.38;79.67;100250.06;5081511;28;20051;-66
2021/08/02 01:20:17;;;;;;;10.25;4.07;;;;;;;19.41;79.55;100243.69;5088391;28;20139;-66
2021/08/02 01:22:44;;;;;;;13.52;5.50;;;;;;;19.51;79.84;100243.25;5090626;28;20072;-68
2021/08/02 01:25:36;;;;;;;11.95;4.57;;;;;;;19.48;79.82;100246.78;5078371;28;20048;-67
2021/08/02 01:28:15;;;;;;;15.00;5.55;;;;;;;19.47;79.91;100242.31;5083470;28;20052;-66
2021/08/02 01:30:42;;;;;;;14.98;5.03;;;;;;;19.52;79.99;100250.59;5082045;28;20040;-67
2021/08/02 01:33:09;;;;;;;16.40;5.93;;;;;;;19.53;79.62;100254.25;5084773;28;20055;-67
2021/08/02 01:35:38;;;;;;;15.52;5.20;;;;;;;19.57;79.59;100246.72;5082188;28;20492;-67
2021/08/02 01:38:05;;;;;;;22.05;5.60;;;;;;;19.59;79.71;100250.88;5089296;28;20071;-67
2021/08/02 01:40:32;;;;;;;13.40;4.47;;;;;;;19.59;79.77;100250.88;5088130;28;20138;-67
2021/08/02 01:43:05;;;;;;;12.23;5.10;;;;;;;19.59;79.63;100245.19;5087623;28;20135;-68
2021/08/02 01:45:51;;;;;;;21.77;4.38;;;;;;;19.57;79.94;100250.38;5083545;28;20044;-67
2021/08/02 01:48:23;;;;;;;16.73;5.18;;;;;;;19.55;79.64;100240.56;5116889;27;20043;-67
2021/08/02 01:51:19;;;;;;;20.88;5.20;;;;;;;19.56;79.90;100237.41;5086513;28;20131;-67
2021/08/02 01:54:09;;;;;;;18.88;5.28;;;;;;;19.54;80.04;100236.91;5077706;28;20053;-65
2021/08/02 01:57:05;;;;;;;11.85;4.63;;;;;;;19.56;79.81;100231.75;5084421;28;20544;-64
2021/08/02 01:59:42;;;;;;;38.08;6.63;;;;;;;19.53;79.77;100229.59;5083298;28;20087;-65
2021/08/02 02:02:11;;;;;;;64.57;9.95;;;;;;;19.59;79.91;100236.69;5087106;28;20051;-64
2021/08/02 02:05:03;;;;;;;46.42;7.55;;;;;;;19.61;80.15;100227.84;5082402;28;20127;-62
2021/08/02 02:07:41;;;;;;;25.38;6.22;;;;;;;19.63;79.74;100217.03;5087008;28;20135;-63
2021/08/02 02:10:13;;;;;;;33.83;7.05;;;;;;;19.63;79.88;100217.84;5082138;28;20127;-64
2021/08/02 02:12:43;;;;;;;14.75;5.30;;;;;;;19.65;79.97;100215.47;5087463;28;20087;-65
2021/08/02 02:15:11;;;;;;;12.38;4.43;;;;;;;19.65;80.08;100223.16;5089467;28;20086;-64
2021/08/02 02:17:40;;;;;;;14.60;5.03;;;;;;;19.54;79.96;100214.25;5089945;28;20575;-64
2021/08/02 02:20:08;;;;;;;13.32;5.78;;;;;;;19.65;80.15;100226.81;5084977;28;20136;-64
2021/08/02 02:22:37;;;;;;;15.20;6.53;;;;;;;19.67;79.96;100231.31;5082309;28;20123;-64
2021/08/02 02:25:06;;;;;;;18.63;7.07;;;;;;;19.58;80.05;100220.03;5086021;28;20044;-64
2021/08/02 02:27:36;;;;;;;16.17;5.63;;;;;;;19.63;80.35;100220.69;5090512;28;20123;-63
2021/08/02 02:30:07;;;;;;;8.98;4.32;;;;;;;19.66;80.31;100224.84;5087992;28;20126;-64
2021/08/02 02:32:38;;;;;;;10.77;4.18;;;;;;;19.56;80.02;100217.56;5080644;28;20463;-64
2021/08/02 02:35:07;;;;;;;12.45;5.35;;;;;;;19.55;80.14;100215.06;5086962;28;20055;-64
2021/08/02 02:37:34;;;;;;;11.27;4.38;;;;;;;19.64;80.00;100221.50;5080569;28;20075;-64
2021/08/02 02:40:03;;;;;;;13.82;5.30;;;;;;;19.62;79.84;100223.81;5092006;28;20131;-64
2021/08/02 02:42:31;;;;;;;13.13;4.78;;;;;;;19.58;79.81;100211.53;5086866;28;20043;-64
2021/08/02 02:44:59;;;;;;;13.05;5.30;;;;;;;19.46;79.98;100201.03;5085886;28;20074;-65
2021/08/02 02:47:27;;;;;;;13.60;4.85;;;;;;;19.66;79.93;100233.34;5076303;28;20075;-65
2021/08/02 02:49:54;;;;;;;16.08;5.80;;;;;;;19.59;79.84;100216.06;5087965;28;20547;-64
2021/08/02 02:52:23;;;;;;;11.45;5.07;;;;;;;19.68;79.85;100218.81;5086559;28;20047;-64
2021/08/02 02:54:53;;;;;;;14.68;4.85;;;;;;;19.53;79.94;100181.44;5084049;28;20044;-64
2021/08/02 02:57:20;;;;;;;11.00;4.95;;;;;;;19.76;80.00;100226.38;5074924;28;20079;-63
2021/08/02 02:59:47;;;;;;;10.85;4.30;;;;;;;19.77;79.83;100230.88;5081205;28;20127;-64
2021/08/02 03:02:15;;;;;;;17.90;4.97;;;;;;;19.81;79.63;100241.16;5078653;28;20124;-64
2021/08/02 03:04:45;;;;;;;9.98;5.05;;;;;;;19.79;79.61;100228.50;5086354;28;20036;-64
2021/08/02 03:07:14;;;;;;;14.15;5.60;;;;;;;19.80;79.57;100238.69;5080770;28;20115;-63
2021/08/02 03:09:45;;;;;;;20.63;7.30;;;;;;;19.80;79.69;100236.66;5088811;28;20119;-63
2021/08/02 03:12:12;;;;;;;20.20;8.10;;;;;;;19.80;79.65;100245.19;5083874;28;20123;-63
2021/08/02 03:14:40;;;;;;;43.13;9.68;;;;;;;19.76;79.73;100244.22;5076158;28;20123;-63
2021/08/02 03:17:08;;;;;;;32.25;9.55;;;;;;;19.74;79.70;100234.41;5086139;28;20105;-63
2021/08/02 03:19:36;;;;;;;37.35;10.52;;;;;;;19.76;79.81;100232.03;5081387;28;20036;-63
2021/08/02 03:22:36;;;;;;;48.28;10.95;;;;;;;19.74;79.83;100228.75;5071874;28;20048;-63
2021/08/02 03:25:25;;;;;;;35.92;8.43;;;;;;;19.78;79.62;100236.19;5076766;28;20054;-63
2021/08/02 03:27:58;;;;;;;38.97;7.45;;;;;;;19.68;79.83;100230.97;5085428;28;20137;-63
2021/08/02 03:30:27;;;;;;;68.03;8.60;;;;;;;19.75;79.71;100238.88;5081171;28;20704;-63
2021/08/02 03:32:55;;;;;;;60.05;8.00;;;;;;;19.74;79.71;100231.56;5087378;28;20079;-63
2021/08/02 03:35:23;;;;;;;59.35;8.88;;;;;;;19.73;79.81;100225.09;5080370;28;20044;-63
2021/08/02 03:37:52;;;;;;;57.20;7.30;;;;;;;19.79;79.63;100231.34;5075604;28;20083;-63
2021/08/02 03:40:19;;;;;;;74.45;9.57;;;;;;;19.74;79.84;100228.75;5085333;28;20127;-64
2021/08/02 03:42:48;;;;;;;44.58;6.60;;;;;;;19.74;79.83;100223.91;5091487;28;20498;-64
2021/08/02 03:45:16;;;;;;;75.50;9.15;;;;;;;19.74;79.79;100223.06;5085141;28;20230;-64
2021/08/02 03:47:43;;;;;;;21.38;4.28;;;;;;;19.78;79.59;100233.34;5081316;28;20106;-65
2021/08/02 03:50:11;;;;;;;27.15;3.35;;;;;;;19.77;79.62;100233.72;5090730;28;20083;-64
2021/08/02 03:52:38;;;;;;;18.77;4.20;;;;;;;19.67;79.67;100217.97;5087527;28;20140;-64
2021/08/02 03:55:07;;;;;;;20.95;2.95;;;;;;;19.69;79.44;100218.44;5077033;28;20051;-65
2021/08/02 03:57:34;;;;;;;20.33;3.67;;;;;;;19.76;79.44;100232.88;5080363;28;20611;-65
2021/08/02 04:00:02;;;;;;;11.15;3.20;;;;;;;19.70;79.59;100233.47;5090004;28;20568;-64
2021/08/02 04:02:29;;;;;;;5.50;2.53;;;;;;;19.72;79.61;100231.91;5097145;28;20146;-68
2021/08/02 04:04:56;;;;;;;11.75;2.67;;;;;;;19.79;79.50;100246.34;5091051;28;20101;-69
2021/08/02 04:07:23;;;;;;;5.55;2.03;;;;;;;19.81;79.72;100252.50;5087931;28;20138;-69
2021/08/02 04:09:49;;;;;;;4.93;2.13;;;;;;;19.70;79.46;100239.13;5080199;28;20465;-68
2021/08/02 04:12:16;;;;;;;12.40;2.75;;;;;;;19.78;79.72;100256.00;5081233;28;20144;-68
2021/08/02 04:14:43;;;;;;;6.60;2.00;;;;;;;19.63;79.57;100234.84;5084948;28;20072;-67
2021/08/02 04:17:10;;;;;;;5.13;2.47;;;;;;;19.45;79.37;100210.66;5100026;28;20462;-69
2021/08/02 04:19:37;;;;;;;6.13;2.25;;;;;;;19.48;79.42;100209.16;5080913;28;20514;-68
2021/08/02 04:22:04;;;;;;;8.43;2.28;;;;;;;19.62;79.65;100250.16;5084921;28;20131;-66
2021/08/02 04:24:31;;;;;;;9.77;1.77;;;;;;;19.56;79.56;100240.22;5071477;28;20067;-66
2021/08/02 04:26:58;;;;;;;5.53;1.55;;;;;;;19.56;79.62;100256.41;5079971;28;20048;-66
2021/08/02 04:29:25;;;;;;;2.58;1.10;;;;;;;19.37;79.90;100231.41;5089220;28;20050;-66
2021/08/02 04:31:51;;;;;;;2.97;1.35;;;;;;;19.31;80.16;100221.47;5087300;28;20511;-64
2021/08/02 04:34:18;;;;;;;2.10;1.10;;;;;;;19.49;79.94;100228.66;5083482;28;20045;-65
2021/08/02 04:36:45;;;;;;;2.15;0.95;;;;;;;19.52;80.08;100229.94;5077713;28;20504;-66
2021/08/02 04:39:12;;;;;;;7.70;1.17;;;;;;;19.39;79.89;100207.25;5084844;28;20527;-66
2021/08/02 04:41:39;;;;;;;2.80;1.20;;;;;;;19.45;79.91;100221.19;5109800;28;20080;-66
2021/08/02 04:44:06;;;;;;;3.00;0.93;;;;;;;19.55;80.18;100232.88;5091125;28;20044;-63
2021/08/02 04:46:33;;;;;;;3.58;1.17;;;;;;;19.53;80.15;100229.59;5079187;28;20123;-64
2021/08/02 04:49:00;;;;;;;1.58;0.65;;;;;;;19.45;80.28;100218.34;5088000;28;20060;-64
2021/08/02 04:51:27;;;;;;;0.82;0.60;;;;;;;19.56;80.38;100220.41;5088951;28;20114;-63
2021/08/02 04:53:53;;;;;;;1.15;0.47;;;;;;;19.60;80.20;100226.19;5091517;28;20079;-64
2021/08/02 04:56:20;;;;;;;0.98;0.52;;;;;;;19.64;80.24;100219.50;5085248;28;20143;-64
2021/08/02 04:58:47;;;;;;;2.53;1.02;;;;;;;19.65;80.25;100226.81;5083421;28;20119;-64
2021/08/02 05:01:14;;;;;;;1.70;0.82;;;;;;;19.57;80.01;100219.22;5090374;28;20566;-65
2021/08/02 05:03:41;;;;;;;1.40;0.60;;;;;;;19.62;80.29;100226.66;5079615;28;20040;-66
2021/08/02 05:06:08;;;;;;;2.15;0.90;;;;;;;19.61;80.18;100225.84;5090015;28;20101;-64
2021/08/02 05:08:35;;;;;;;4.35;1.35;;;;;;;19.61;79.94;100233.50;5079351;28;20044;-64
2021/08/02 05:11:02;;;;;;;4.13;1.17;;;;;;;19.58;80.16;100240.69;5091424;28;20627;-66
2021/08/02 05:13:29;;;;;;;4.03;1.60;;;;;;;19.44;80.07;100231.69;5087915;28;20083;-66
2021/08/02 05:15:56;;;;;;;5.60;1.50;;;;;;;19.38;80.12;100245.25;5089213;28;20586;-63
2021/08/02 05:18:23;;;;;;;4.65;1.48;;;;;;;19.36;80.33;100260.91;5085655;28;20051;-63
2021/08/02 05:20:50;;;;;;;5.78;1.73;;;;;;;19.42;80.33;100277.34;5079372;28;20083;-71
2021/08/02 05:23:17;;;;;;;8.50;2.83;;;;;;;19.38;80.09;100272.72;5088565;28;20462;-70
2021/08/02 05:25:44;;;;;;;8.88;1.77;;;;;;;19.31;80.11;100266.78;5085822;28;20072;-62
2021/08/02 05:28:11;;;;;;;24.05;3.08;;;;;;;19.31;80.39;100278.09;5083277;28;20131;-69
2021/08/02 05:30:38;;;;;;;28.73;2.92;;;;;;;19.00;80.24;100231.22;5086249;28;20044;-66
2021/08/02 05:33:04;;;;;;;14.82;2.20;;;;;;;19.26;80.35;100275.50;5085632;28;20135;-68
2021/08/02 05:35:31;;;;;;;14.63;2.28;;;;;;;19.24;80.47;100277.84;5082841;28;20058;-69
2021/08/02 05:37:58;;;;;;;50.83;3.72;;;;;;;19.22;80.46;100289.50;5095921;28;20098;-66
2021/08/02 05:40:25;;;;;;;14.02;2.55;;;;;;;19.11;80.08;100277.78;5082497;28;20068;-64
2021/08/02 05:42:52;;;;;;;20.45;3.08;;;;;;;19.15;80.61;100286.41;5082828;28;20044;-63
2021/08/02 05:45:19;;;;;;;16.95;2.58;;;;;;;18.99;80.58;100262.72;5084116;28;20156;-65
2021/08/02 05:47:46;;;;;;;48.47;5.25;;;;;;;19.09;80.43;100282.94;5086702;28;20040;-63
2021/08/02 05:50:13;;;;;;;53.15;4.32;;;;;;;19.10;80.45;100287.44;5082984;28;20044;-64
2021/08/02 05:52:41;;;;;;;36.40;3.72;;;;;;;19.10;80.39;100290.25;5081659;28;20147;-63
2021/08/02 05:55:10;;;;;;;23.60;2.05;;;;;;;19.04;80.85;100286.00;5077829;28;20053;-60
2021/08/02 05:57:37;;;;;;;47.58;3.03;;;;;;;19.06;80.61;100294.94;5081743;28;20068;-69
2021/08/02 06:00:05;;;;;;;61.60;4.45;;;;;;;18.99;80.48;100272.03;5079990;28;20044;-65
2021/08/02 06:02:32;;;;;;;50.08;5.47;;;;;;;19.08;80.59;100286.97;5086365;28;20140;-62
2021/08/02 06:04:59;;;;;;;104.82;8.48;;;;;;;19.02;80.77;100287.50;5087459;28;20590;-65
2021/08/02 06:07:26;;;;;;;11.95;2.28;;;;;;;19.03;80.68;100275.00;5084414;28;20135;-65
2021/08/02 06:09:55;;;;;;;72.35;5.82;;;;;;;19.06;80.93;100286.47;5087630;28;20087;-65
2021/08/02 06:12:23;;;;;;;40.72;3.15;;;;;;;19.06;81.05;100280.81;5084962;28;22449;-65
2021/08/02 06:14:49;;;;;;;59.30;4.78;;;;;;;18.88;80.99;100259.47;5080067;28;20134;-65
2021/08/02 06:17:16;;;;;;;29.38;3.00;;;;;;;19.11;81.18;100286.28;5081428;28;20040;-64
2021/08/02 06:19:44;;;;;;;72.55;5.35;;;;;;;19.11;81.16;100286.28;5088074;28;20043;-64
2021/08/02 06:22:11;;;;;;;109.70;7.10;;;;;;;19.17;81.20;100290.53;5086825;28;20272;-64
2021/08/02 06:24:39;;;;;;;54.08;4.88;;;;;;;19.19;80.93;100295.88;5087528;28;20076;-64
2021/08/02 06:27:06;;;;;;;31.08;3.70;;;;;;;19.22;81.27;100302.84;5087140;28;20122;-65
2021/08/02 06:29:33;;;;;;;95.95;6.95;;;;;;;19.26;81.07;100295.31;5083861;28;20052;-65
2021/08/02 06:32:01;;;;;;;55.90;4.60;;;;;;;19.32;81.18;100291.09;5082988;28;20408;-65
2021/08/02 06:34:28;;;;;;;71.68;5.78;;;;;;;19.34;81.30;100300.06;5082081;28;20040;-65
2021/08/02 06:36:56;;;;;;;68.65;6.57;;;;;;;19.39;81.06;100303.53;5087382;28;20181;-65
2021/08/02 06:39:22;;;;;;;39.65;4.10;;;;;;;19.36;81.31;100292.06;5086234;28;20071;-65
2021/08/02 06:41:49;;;;;;;35.92;4.50;;;;;;;19.47;81.16;100310.28;5079364;28;20130;-66
2021/08/02 06:44:16;;;;;;;41.53;5.13;;;;;;;19.48;81.28;100303.44;5086903;28;20131;-65
2021/08/02 06:46:43;;;;;;;64.30;6.75;;;;;;;19.55;81.19;100319.88;5082611;28;20068;-65
2021/08/02 06:49:10;;;;;;;36.55;5.13;;;;;;;19.56;81.11;100313.88;5086095;28;20093;-64
2021/08/02 06:51:37;;;;;;;10.57;3.13;;;;;;;19.57;80.91;100312.69;5090522;28;20079;-64
2021/08/02 06:54:04;;;;;;;20.05;3.50;;;;;;;19.63;80.92;100308.50;5086013;28;20040;-65
2021/08/02 06:56:31;;;;;;;11.98;3.50;;;;;;;19.68;80.93;100315.13;5080931;28;20130;-64
2021/08/02 06:58:58;;;;;;;5.43;2.22;;;;;;;19.69;81.28;100311.94;5084995;28;20071;-64
2021/08/02 07:01:25;;;;;;;9.32;2.90;;;;;;;19.78;81.05;100311.84;5064944;28;20056;-64
2021/08/02 07:03:52;;;;;;;6.72;2.90;;;;;;;19.82;80.99;100309.97;5082459;28;20081;-65
2021/08/02 07:06:19;;;;;;;8.23;3.33;;;;;;;19.92;81.30;100320.88;5075847;28;20172;-64
2021/08/02 07:08:45;;;;;;;11.25;3.45;;;;;;;20.00;81.09;100322.81;5080819;28;20048;-64
2021/08/02 07:11:15;;;;;;;8.98;3.00;;;;;;;20.08;81.30;100318.22;5082206;28;20062;-64
2021/08/02 07:13:42;;;;;;;9.25;2.97;;;;;;;20.21;81.22;100327.59;5084204;28;20072;-65
2021/08/02 07:16:09;;;;;;;9.07;3.45;;;;;;;20.33;81.07;100325.56;5087484;28;20491;-64
2021/08/02 07:18:36;;;;;;;10.52;3.67;;;;;;;20.51;81.03;100325.41;5080251;28;20040;-65
2021/08/02 07:21:03;;;;;;;10.18;3.83;;;;;;;20.57;80.76;100313.47;5080827;28;20101;-64
2021/08/02 07:23:30;;;;;;;12.45;4.40;;;;;;;20.80;80.56;100327.19;5084167;28;20070;-64
2021/08/02 07:25:57;;;;;;;10.73;5.13;;;;;;;20.77;80.28;100325.06;5084950;28;20190;-64
2021/08/02 07:28:24;;;;;;;14.15;4.82;;;;;;;20.74;80.17;100331.44;5074199;28;20073;-65
2021/08/02 07:30:50;;;;;;;26.58;9.60;;;;;;;20.82;80.21;100330.50;5074846;28;20079;-65
2021/08/02 07:33:17;;;;;;;17.00;7.50;;;;;;;20.91;80.04;100336.88;5084675;28;20048;-65
2021/08/02 07:35:44;;;;;;;18.00;7.63;;;;;;;20.89;79.85;100324.22;5072338;28;20416;-66
2021/08/02 07:38:12;;;;;;;11.75;5.68;;;;;;;21.09;79.79;100339.47;5071436;28;20044;-65
2021/08/02 07:40:39;;;;;;;10.98;4.57;;;;;;;21.19;79.71;100345.47;5090638;28;20131;-65
2021/08/02 07:43:06;;;;;;;11.77;5.10;;;;;;;21.27;79.45;100344.53;5091445;28;20139;-65
2021/08/02 07:45:33;;;;;;;8.95;4.50;;;;;;;21.31;79.43;100353.16;5090227;28;20036;-66
2021/08/02 07:48:00;;;;;;;13.40;5.43;;;;;;;21.29;79.32;100355.50;5107456;28;20131;-66
2021/08/02 07:50:27;;;;;;;11.73;5.43;;;;;;;21.33;79.39;100359.28;5091356;28;20083;-65
2021/08/02 07:52:55;;;;;;;14.73;4.97;;;;;;;21.45;79.49;100358.47;5078785;28;20120;-65
2021/08/02 07:55:22;;;;;;;12.20;5.00;;;;;;;21.39;79.21;100343.69;5071391;28;20511;-65
2021/08/02 07:57:49;;;;;;;12.05;5.38;;;;;;;21.60;79.12;100356.88;5071970;28;20091;-65
2021/08/02 08:00:17;;;;;;;10.70;5.55;;;;;;;21.69;79.25;100352.72;5071410;28;20067;-65
2021/08/02 08:02:45;;;;;;;10.43;4.90;;;;;;;21.84;79.07;100347.44;5089162;28;20131;-66
2021/08/02 08:05:14;;;;;;;;;;;;;;;22.00;79.55;100354.84;5092269;28;20052;-65
2021/08/02 08:07:50;;;;;;;11.55;5.55;;;;;;;22.35;79.49;100348.50;5096049;28;20335;-65
2021/08/02 08:10:19;;;;;;;7.32;4.22;;;;;;;22.86;79.38;100336.41;5083151;28;20124;-64
2021/08/02 08:12:46;;;;;;;7.55;3.70;;;;;;;23.38;78.73;100353.16;5093668;28;20094;-64
2021/08/02 08:15:14;;;;;;;6.18;3.28;;;;;;;23.74;77.28;100359.66;5086990;28;20954;-65
2021/08/02 08:17:42;;;;;;;6.47;3.13;;;;;;;24.15;76.96;100354.38;5085954;28;20078;-65
2021/08/02 08:20:11;;;;;;;6.45;3.67;;;;;;;24.81;75.52;100350.28;5081068;28;20146;-65
2021/08/02 08:22:38;;;;;;;6.82;3.72;;;;;;;25.35;74.82;100367.50;5081148;28;20506;-63
2021/08/02 08:25:07;;;;;;;6.90;3.60;;;;;;;25.90;73.89;100359.28;5087892;28;20076;-65
2021/08/02 08:27:35;;;;;;;6.95;2.97;;;;;;;25.62;72.59;100349.09;5081983;28;20048;-66
2021/08/02 08:30:04;;;;;;;8.13;4.05;;;;;;;25.32;72.96;100351.13;5084857;28;20559;-66
2021/08/02 08:32:31;;;;;;;5.68;3.20;;;;;;;25.58;72.60;100356.81;5082414;28;20106;-66
2021/08/02 08:34:58;;;;;;;7.40;3.88;;;;;;;25.45;72.78;100355.41;5090435;28;20455;-67
2021/08/02 08:37:29;;;;;;;6.03;3.50;;;;;;;25.97;71.84;100348.75;5082983;28;20044;-66
2021/08/02 08:39:56;;;;;;;7.43;4.15;;;;;;;26.62;70.94;100356.03;5084252;28;20083;-67
2021/08/02 08:42:23;;;;;;;7.00;3.55;;;;;;;27.05;69.97;100352.72;5078808;28;20055;-68
2021/08/02 08:44:50;;;;;;;6.35;3.10;;;;;;;27.08;69.29;100341.28;5082469;28;20052;-66
2021/08/02 08:47:17;;;;;;;8.13;4.15;;;;;;;27.32;68.77;100350.47;5084658;28;20127;-68
2021/08/02 08:49:43;;;;;;;5.80;2.85;;;;;;;27.57;68.15;100337.09;5085703;28;20093;-68
2021/08/02 08:52:16;;;;;;;4.97;2.60;;;;;;;28.45;66.87;100332.13;5084323;28;20484;-67
2021/08/02 08:54:43;;;;;;;5.28;2.30;;;;;;;28.78;65.46;100345.25;5083908;28;20569;-67
2021/08/02 08:57:11;;;;;;;4.00;2.17;;;;;;;28.70;65.47;100345.69;5085183;28;20068;-67
2021/08/02 08:59:51;;;;;;;7.60;2.70;;;;;;;28.37;65.38;100336.16;5089016;28;20087;-66
2021/08/02 09:02:26;;;;;;;3.85;2.08;;;;;;;28.22;65.61;100341.06;5085102;28;20126;-66
2021/08/02 09:05:00;;;;;;;3.83;2.15;;;;;;;28.21;65.08;100335.75;5087790;28;20040;-66
2021/08/02 09:07:36;;;;;;;4.05;2.15;;;;;;;28.30;65.48;100345.59;5092843;28;20131;-66
2021/08/02 09:10:09;;;;;;;4.15;2.10;;;;;;;28.73;64.97;100344.88;5088790;28;20044;-67
2021/08/02 09:12:36;;;;;;;5.13;2.20;;;;;;;29.03;63.96;100348.19;5075283;28;20123;-67
2021/08/02 09:15:06;;;;;;;1.80;1.23;;;;;;;29.25;62.77;100348.16;5084518;28;20048;-67
2021/08/02 09:17:37;;;;;;;2.50;1.35;;;;;;;29.11;62.16;100345.28;5083121;28;20146;-66
2021/08/02 09:20:06;;;;;;;2.55;1.55;;;;;;;28.68;62.05;100325.16;5085496;28;20573;-66
2021/08/02 09:22:36;;;;;;;3.92;1.70;;;;;;;28.52;62.07;100325.56;5081995;28;20490;-66
2021/08/02 09:25:09;;;;;;;2.78;1.40;;;;;;;28.46;62.24;100330.88;5089686;28;20074;-67
2021/08/02 09:27:38;;;;;;;3.05;1.70;;;;;;;28.39;62.00;100336.63;5097840;28;20080;-66
2021/08/02 09:30:31;;;;;;;3.55;1.92;;;;;;;28.08;63.62;100341.03;5078504;28;20128;-67
2021/08/02 09:33:09;;;;;;;2.60;1.88;;;;;;;28.01;63.01;100335.25;5082210;28;20515;-66
2021/08/02 09:35:40;;;;;;;2.35;1.45;;;;;;;27.96;62.30;100319.25;5078248;28;20122;-65
2021/08/02 09:38:11;;;;;;;2.78;2.03;;;;;;;28.07;61.73;100328.72;5082365;28;20483;-66
2021/08/02 09:40:58;;;;;;;2.45;1.73;;;;;;;28.77;61.71;100317.75;5080581;28;20053;-65
2021/08/02 09:43:30;;;;;;;2.33;1.63;;;;;;;29.44;60.04;100324.69;5080361;28;20148;-64
2021/08/02 09:46:05;;;;;;;3.35;1.90;;;;;;;30.17;58.93;100328.94;5082467;28;20097;-65
2021/08/02 09:48:36;;;;;;;4.00;1.92;;;;;;;30.71;58.13;100323.66;5083897;28;20682;-65
2021/08/02 09:51:17;;;;;;;4.50;1.55;;;;;;;31.08;57.53;100325.00;5079474;28;20174;-64
2021/08/02 09:53:54;;;;;;;3.20;1.80;;;;;;;31.48;56.88;100331.19;5079965;28;20593;-64
2021/08/02 09:56:23;;;;;;;4.28;1.85;;;;;;;31.99;55.42;100335.13;5080433;28;20044;-66
2021/08/02 09:59:07;;;;;;;4.15;1.75;;;;;;;32.37;54.57;100335.81;5083127;28;20036;-67
2021/08/02 10:01:35;;;;;;;2.47;1.60;;;;;;;32.66;53.83;100347.00;5085801;28;20139;-66
2021/08/02 10:04:04;;;;;;;3.00;1.70;;;;;;;32.87;53.44;100328.47;5082899;28;20053;-64
2021/08/02 10:06:33;;;;;;;5.15;1.73;;;;;;;33.20;52.36;100333.28;5085324;28;20044;-65
2021/08/02 10:09:00;;;;;;;2.85;1.50;;;;;;;33.07;51.65;100338.06;5078965;28;20058;-65
2021/08/02 10:11:28;;;;;;;4.28;1.63;;;;;;;32.52;51.42;100310.47;5081907;28;20126;-65
2021/08/02 10:13:56;;;;;;;2.65;1.40;;;;;;;32.44;51.09;100341.53;5086740;28;20066;-65
2021/08/02 10:16:27;;;;;;;2.10;1.50;;;;;;;31.83;51.73;100339.44;5081881;28;20044;-65
2021/08/02 10:19:06;;;;;;;2.78;1.65;;;;;;;31.71;51.63;100337.09;5084776;28;20071;-66
2021/08/02 10:21:42;;;;;;;2.15;1.67;;;;;;;31.52;51.41;100331.97;5088142;28;20045;-66
2021/08/02 10:24:12;;;;;;;3.13;2.15;;;;;;;31.31;50.69;100342.47;5079600;28;20064;-65
2021/08/02 10:26:40;;;;;;;3.25;1.90;;;;;;;31.65;49.36;100341.72;5078293;28;20118;-65
2021/08/02 10:29:08;;;;;;;3.88;2.20;;;;;;;31.85;49.58;100328.25;5079503;28;20760;-66
2021/08/02 10:31:44;;;;;;;2.60;2.00;;;;;;;32.16;49.05;100341.91;5079790;28;20048;-65
2021/08/02 10:34:19;;;;;;;5.13;1.70;;;;;;;32.22;49.20;100331.53;5076833;28;20059;-65
2021/08/02 10:37:06;;;;;;;2.25;1.65;;;;;;;32.60;48.42;100326.44;5080175;28;20044;-64
2021/08/02 10:39:35;;;;;;;3.85;1.98;;;;;;;32.67;48.10;100340.75;5079740;28;20079;-65
2021/08/02 10:42:05;;;;;;;5.45;3.42;;;;;;;32.10;48.21;100341.56;5086250;28;20099;-65
2021/08/02 10:44:56;;;;;;;4.93;2.97;;;;;;;31.11;49.43;100335.66;5086257;28;20117;-65
2021/08/02 10:47:36;;;;;;;3.38;2.08;;;;;;;30.51;49.84;100325.44;5071322;28;20045;-65
2021/08/02 10:50:04;;;;;;;4.35;2.90;;;;;;;30.10;49.64;100328.97;5081646;28;20502;-66
2021/08/02 10:52:31;;;;;;;6.03;4.20;;;;;;;29.55;50.18;100346.84;5086122;28;20523;-65
2021/08/02 10:54:58;;;;;;;7.28;3.35;;;;;;;28.97;51.50;100355.53;5087303;28;20074;-68
2021/08/02 10:57:25;;;;;;;6.95;4.40;;;;;;;28.46;52.54;100342.38;5091634;28;20138;-64
2021/08/02 10:59:52;;;;;;;5.55;4.07;;;;;;;28.31;53.25;100357.91;5080281;28;20125;-64
2021/08/02 11:02:21;;;;;;;8.80;3.88;;;;;;;28.35;53.66;100350.13;5085189;28;20135;-65
2021/08/02 11:04:56;;;;;;;10.05;4.43;;;;;;;28.33;53.55;100343.94;5078970;28;20047;-66
2021/08/02 11:07:23;;;;;;;7.63;4.38;;;;;;;28.21;54.16;100352.97;5083836;28;20502;-67
2021/08/02 11:09:50;;;;;;;8.77;4.82;;;;;;;28.07;54.34;100354.56;5081908;28;20044;-65
2021/08/02 11:12:18;;;;;;;8.70;4.80;;;;;;;27.85;54.03;100345.03;5075356;28;20051;-64
2021/08/02 11:14:51;;;;;;;7.28;5.15;;;;;;;27.37;54.99;100353.78;5086897;28;20403;-64
2021/08/02 11:17:20;;;;;;;7.00;4.53;;;;;;;27.32;55.83;100350.47;5081071;28;20296;-64
2021/08/02 11:20:09;;;;;;;11.70;6.20;;;;;;;27.84;55.93;100362.66;5085093;28;20135;-65
2021/08/02 11:22:50;;;;;;;9.63;5.35;;;;;;;28.65;55.58;100363.31;5084658;28;20075;-66
2021/08/02 11:25:32;;;;;;;6.60;4.55;;;;;;;29.59;54.22;100362.91;5083150;28;20070;-65
2021/08/02 11:28:00;;;;;;;8.68;5.28;;;;;;;29.84;53.55;100368.56;5083205;28;20484;-64
2021/08/02 11:30:28;;;;;;;6.63;3.35;;;;;;;30.17;52.97;100352.78;5080880;28;20076;-65
2021/08/02 11:32:56;;;;;;;5.63;3.57;;;;;;;30.48;52.64;100355.91;5081285;28;20055;-65
2021/08/02 11:35:37;;;;;;;7.05;4.20;;;;;;;30.90;51.69;100349.03;5084702;28;20159;-65